createdAt,value
2018-02-09T00:00:15.042Z,116.80
2018-02-09T00:02:42.562Z,101.90
2018-02-09T00:05:10.122Z,96.13
2018-02-09T00:07:37.681Z,108.60
2018-02-09T00:10:05.241Z,100.13
2018-02-09T00:12:32.800Z,99.67
2018-02-09T00:15:00.361Z,95.27
2018-02-09T00:17:27.857Z,110.53
2018-02-09T00:19:55.312Z,109.17
2018-02-09T00:22:28.677Z,100.20
2018-02-09T00:24:56.233Z,99.13
2018-02-09T00:27:24.710Z,99.40
2018-02-09T00:29:52.111Z,99.87
2018-02-09T00:32:19.624Z,89.80
2018-02-09T00:34:47.184Z,94.13
2018-02-09T00:37:14.744Z,88.23
2018-02-09T00:39:42.303Z,102.47
2018-02-09T00:42:09.862Z,108.00
2018-02-09T00:44:37.355Z,98.87
2018-02-09T00:47:08.054Z,97.27
2018-02-09T00:49:35.612Z,100.53
2018-02-09T00:52:03.172Z,107.47
2018-02-09T00:54:30.583Z,100.90
2018-02-09T00:56:58.189Z,88.07
2018-02-09T00:59:25.684Z,100.60
2018-02-09T01:01:53.205Z,95.33
2018-02-09T01:04:20.765Z,94.00
2018-02-09T01:06:48.222Z,88.07
2018-02-09T01:09:15.717Z,106.83
2018-02-09T01:11:43.174Z,106.60
2018-02-09T01:14:10.797Z,101.50
2018-02-09T01:16:38.255Z,96.57
2018-02-09T01:19:05.748Z,95.53
2018-02-09T01:21:33.204Z,86.43
2018-02-09T01:24:00.625Z,93.47
2018-02-09T01:26:28.185Z,86.63
2018-02-09T01:28:55.781Z,95.07
2018-02-09T01:31:23.406Z,101.70
2018-02-09T01:33:50.971Z,96.50
2018-02-09T01:36:18.424Z,100.03
2018-02-09T01:38:45.917Z,90.47
2018-02-09T01:41:13.371Z,90.80
2018-02-09T01:43:40.832Z,102.87
2018-02-09T01:46:08.235Z,95.20
2018-02-09T01:48:35.912Z,94.07
2018-02-09T01:51:03.374Z,92.57
2018-02-09T01:53:30.930Z,91.27
2018-02-09T01:55:58.489Z,85.93
2018-02-09T01:58:26.049Z,91.40
2018-02-09T02:00:53.608Z,85.37
2018-02-09T02:03:21.168Z,83.13
2018-02-09T02:05:48.660Z,96.33
2018-02-09T02:08:16.184Z,90.13
2018-02-09T02:10:43.846Z,88.47
2018-02-09T02:13:11.410Z,88.30
2018-02-09T02:15:38.964Z,74.37
2018-02-09T02:18:06.524Z,89.47
2018-02-09T02:20:34.087Z,96.57
2018-02-09T02:23:01.644Z,87.50
2018-02-09T02:25:29.203Z,90.47
2018-02-09T02:27:56.763Z,91.83
2018-02-09T02:30:24.320Z,84.10
2018-02-09T02:32:51.752Z,96.73
2018-02-09T02:35:19.274Z,88.83
2018-02-09T02:37:46.795Z,81.00
2018-02-09T02:40:14.355Z,92.97
2018-02-09T02:42:41.850Z,91.70
2018-02-09T02:45:09.309Z,102.47
2018-02-09T02:47:36.829Z,85.67
2018-02-09T02:50:04.387Z,95.20
2018-02-09T02:52:31.947Z,85.90
2018-02-09T02:54:59.440Z,85.00
2018-02-09T02:57:26.965Z,82.00
2018-02-09T02:59:54.522Z,94.40
2018-02-09T03:02:22.124Z,86.97
2018-02-09T03:04:49.643Z,87.13
2018-02-09T03:07:17.132Z,97.63
2018-02-09T03:09:44.659Z,88.33
2018-02-09T03:12:12.153Z,95.17
2018-02-09T03:14:39.588Z,91.90
2018-02-09T03:17:07.134Z,88.40
2018-02-09T03:19:34.690Z,83.97
2018-02-09T03:22:02.250Z,85.03
2018-02-09T03:24:29.809Z,81.13
2018-02-09T03:26:57.303Z,84.53
2018-02-09T03:29:24.827Z,80.87
2018-02-09T03:31:52.489Z,85.00
2018-02-09T03:34:20.048Z,88.20
2018-02-09T03:36:47.541Z,90.30
2018-02-09T03:39:15.000Z,80.60
2018-02-09T03:41:42.521Z,85.50
2018-02-09T03:44:10.593Z,85.20
2018-02-09T03:46:38.255Z,91.87
2018-02-09T03:49:05.667Z,74.97
2018-02-09T03:51:33.168Z,92.70
2018-02-09T03:54:00.731Z,90.50
2018-02-09T03:56:28.221Z,98.57
2018-02-09T03:58:55.847Z,103.00
2018-02-09T04:01:23.407Z,94.13
2018-02-09T04:03:50.812Z,89.97
2018-02-09T04:06:18.453Z,93.27
2018-02-09T04:08:45.983Z,88.90
2018-02-09T04:11:13.476Z,85.37
2018-02-09T04:13:40.999Z,88.63
2018-02-09T04:16:08.493Z,104.27
2018-02-09T04:18:36.016Z,101.57
2018-02-09T04:21:03.575Z,99.10
2018-02-09T04:23:31.136Z,99.27
2018-02-09T04:25:58.694Z,103.43
2018-02-09T04:28:26.254Z,102.50
2018-02-09T04:30:53.710Z,92.23
2018-02-09T04:36:05.864Z,98.10
2018-02-09T04:38:33.387Z,96.90
2018-02-09T04:41:00.844Z,99.67
2018-02-09T04:43:28.506Z,95.07
2018-02-09T04:45:56.065Z,92.10
2018-02-09T04:48:23.627Z,103.03
2018-02-09T04:50:52.311Z,95.10
2018-02-09T04:53:19.874Z,96.60
2018-02-09T04:55:53.782Z,90.40
2018-02-09T04:58:21.209Z,93.43
2018-02-09T05:00:48.798Z,99.90
2018-02-09T05:03:16.358Z,93.30
2018-02-09T05:05:43.848Z,95.07
2018-02-09T05:08:11.371Z,99.73
2018-02-09T05:10:38.930Z,96.53
2018-02-09T05:13:06.490Z,101.37
2018-02-09T05:15:34.049Z,110.50
2018-02-09T05:18:01.610Z,94.73
2018-02-09T05:20:29.067Z,100.47
2018-02-09T05:22:56.626Z,94.93
2018-02-09T05:25:24.119Z,98.40
2018-02-09T05:27:51.643Z,94.53
2018-02-09T05:30:19.201Z,95.27
2018-02-09T05:32:46.761Z,104.97
2018-02-09T05:35:14.423Z,105.27
2018-02-09T05:37:41.984Z,94.70
2018-02-09T05:40:09.543Z,104.17
2018-02-09T05:42:36.999Z,97.90
2018-02-09T05:45:04.491Z,101.77
2018-02-09T05:47:32.021Z,111.27
2018-02-09T05:49:59.779Z,109.33
2018-02-09T05:55:19.166Z,115.63
2018-02-09T06:00:31.864Z,121.27
2018-02-09T06:02:59.294Z,112.03
2018-02-09T06:05:26.814Z,116.07
2018-02-09T06:07:54.372Z,118.90
2018-02-09T06:10:21.788Z,119.87
2018-02-09T06:12:49.286Z,123.50
2018-02-09T06:15:16.846Z,127.33
2018-02-09T06:17:44.406Z,128.57
2018-02-09T06:20:11.973Z,115.87
2018-02-09T06:22:39.524Z,113.70
2018-02-09T06:25:06.983Z,113.90
2018-02-09T06:27:34.477Z,119.23
2018-02-09T06:30:02.100Z,115.37
2018-02-09T06:32:29.519Z,123.10
2018-02-09T06:34:57.117Z,107.93
2018-02-09T06:37:24.780Z,118.10
2018-02-09T06:39:52.338Z,119.67
2018-02-09T06:42:19.899Z,116.03
2018-02-09T06:44:47.403Z,113.40
2018-02-09T06:47:15.018Z,124.67
2018-02-09T06:49:42.474Z,131.07
2018-02-09T06:52:10.033Z,116.03
2018-02-09T06:54:37.593Z,136.50
2018-02-09T06:57:05.151Z,135.07
2018-02-09T06:59:32.711Z,130.50
2018-02-09T07:02:00.274Z,127.63
2018-02-09T07:04:27.830Z,142.03
2018-02-09T07:06:55.496Z,140.43
2018-02-09T07:09:22.988Z,133.23
2018-02-09T07:11:50.509Z,131.17
2018-02-09T07:14:18.068Z,120.87
2018-02-09T07:16:45.627Z,128.03
2018-02-09T07:19:13.084Z,120.23
2018-02-09T07:21:40.644Z,121.47
2018-02-09T07:24:08.203Z,128.77
2018-02-09T07:26:35.762Z,110.87
2018-02-09T07:29:03.256Z,105.40
2018-02-09T07:31:30.779Z,122.07
2018-02-09T07:33:58.251Z,130.93
2018-02-09T07:36:25.797Z,106.23
2018-02-09T07:38:53.356Z,121.80
2018-02-09T07:41:20.914Z,112.27
2018-02-09T07:43:48.475Z,120.00
2018-02-09T07:46:15.969Z,115.50
2018-02-09T07:48:43.491Z,110.97
2018-02-09T07:51:11.051Z,115.10
2018-02-09T07:53:38.610Z,111.93
2018-02-09T07:56:06.104Z,101.97
2018-02-09T07:58:33.664Z,109.30
2018-02-09T08:01:01.185Z,112.40
2018-02-09T08:03:28.692Z,108.93
2018-02-09T08:05:56.205Z,102.80
2018-02-09T08:08:23.762Z,124.90
2018-02-09T08:10:51.321Z,104.57
2018-02-09T08:13:18.880Z,106.93
2018-02-09T08:15:46.316Z,106.60
2018-02-09T08:18:13.802Z,112.20
2018-02-09T08:20:41.354Z,117.40
2018-02-09T08:23:08.849Z,113.60
2018-02-09T08:25:36.304Z,130.70
2018-02-09T08:28:03.828Z,128.17
2018-02-09T08:30:31.387Z,128.83
2018-02-09T08:32:58.947Z,116.83
2018-02-09T08:35:26.406Z,114.10
2018-02-09T08:37:53.963Z,116.63
2018-02-09T08:40:21.404Z,121.27
2018-02-09T08:42:49.082Z,117.60
2018-02-09T08:45:16.641Z,115.60
2018-02-09T08:47:44.200Z,112.00
2018-02-09T08:50:11.696Z,121.27
2018-02-09T08:52:39.217Z,117.90
2018-02-09T08:55:06.776Z,114.00
2018-02-09T08:57:35.088Z,111.03
2018-02-09T09:00:02.615Z,117.87
2018-02-09T09:02:30.173Z,116.77
2018-02-09T09:04:57.733Z,134.13
2018-02-09T09:07:25.190Z,125.37
2018-02-09T09:09:52.748Z,121.27
2018-02-09T09:12:20.308Z,136.23
2018-02-09T09:14:48.379Z,131.13
2018-02-09T09:17:15.939Z,135.43
2018-02-09T09:19:43.498Z,136.90
2018-02-09T09:22:10.993Z,126.77
2018-02-09T09:24:38.514Z,127.87
2018-02-09T09:27:06.008Z,126.47
2018-02-09T09:29:33.636Z,118.40
2018-02-09T09:32:01.193Z,136.70
2018-02-09T09:34:28.600Z,122.07
2018-02-09T09:36:56.210Z,113.30
2018-02-09T09:39:23.786Z,126.47
2018-02-09T09:41:51.265Z,112.73
2018-02-09T09:44:18.720Z,117.50
2018-02-09T09:46:46.241Z,124.63
2018-02-09T09:49:13.708Z,126.47
2018-02-09T09:51:41.258Z,130.63
2018-02-09T09:54:08.757Z,121.43
2018-02-09T09:56:36.325Z,109.73
2018-02-09T09:59:03.873Z,127.50
2018-02-09T10:01:31.496Z,112.67
2018-02-09T10:03:59.057Z,104.60
2018-02-09T10:06:26.552Z,123.00
2018-02-09T10:08:54.892Z,121.63
2018-02-09T10:11:22.390Z,104.33
2018-02-09T10:13:49.909Z,111.27
2018-02-09T10:16:17.467Z,119.47
2018-02-09T10:18:45.089Z,117.77
2018-02-09T10:21:12.526Z,122.77
2018-02-09T10:23:40.043Z,120.97
2018-02-09T10:26:07.603Z,137.67
2018-02-09T10:28:35.100Z,132.23
2018-02-09T10:31:02.622Z,123.27
2018-02-09T10:33:30.178Z,123.53
2018-02-09T10:35:57.739Z,107.80
2018-02-09T10:38:25.297Z,110.83
2018-02-09T10:40:52.857Z,94.23
2018-02-09T10:43:20.417Z,86.60
2018-02-09T10:45:47.913Z,102.47
2018-02-09T10:48:15.536Z,98.23
2018-02-09T10:50:43.056Z,104.47
2018-02-09T10:53:10.655Z,103.77
2018-02-09T10:55:54.804Z,107.70
2018-02-09T10:58:22.363Z,97.00
2018-02-09T11:00:55.707Z,101.57
2018-02-09T11:03:23.216Z,107.67
2018-02-09T11:05:50.808Z,103.93
2018-02-09T11:08:18.438Z,90.00
2018-02-09T11:10:48.659Z,95.37
2018-02-09T11:13:16.218Z,104.77
2018-02-09T11:15:43.816Z,86.93
2018-02-09T11:18:11.337Z,90.83
2018-02-09T11:20:38.919Z,91.27
2018-02-09T11:23:06.457Z,86.43
2018-02-09T11:25:33.913Z,80.47
2018-02-09T11:28:01.473Z,92.07
2018-02-09T11:30:29.037Z,96.00
2018-02-09T11:32:56.594Z,92.43
2018-02-09T11:35:24.151Z,85.40
2018-02-09T11:37:51.609Z,89.40
2018-02-09T11:40:19.170Z,87.87
2018-02-09T11:42:46.661Z,85.63
2018-02-09T11:45:14.188Z,82.90
2018-02-09T11:47:41.749Z,89.87
2018-02-09T11:50:09.302Z,79.13
2018-02-09T11:52:36.863Z,92.40
2018-02-09T11:55:04.356Z,84.87
2018-02-09T11:57:31.879Z,76.83
2018-02-09T11:59:59.439Z,81.23
2018-02-09T12:02:26.932Z,78.13
2018-02-09T12:04:54.455Z,75.00
2018-02-09T12:07:22.014Z,73.97
2018-02-09T12:09:49.574Z,87.50
2018-02-09T12:12:17.133Z,86.43
2018-02-09T12:14:44.693Z,139.17
2018-02-09T12:17:12.252Z,77.60
2018-02-09T12:19:39.811Z,81.57
2018-02-09T12:22:07.310Z,82.33
2018-02-09T12:24:34.827Z,79.07
2018-02-09T12:27:02.387Z,79.90
2018-02-09T12:29:29.947Z,77.77
2018-02-09T12:31:57.404Z,93.73
2018-02-09T12:34:24.965Z,88.60
2018-02-09T12:36:52.524Z,83.93
2018-02-09T12:39:20.016Z,81.07
2018-02-09T12:41:47.641Z,89.37
2018-02-09T12:44:15.201Z,83.83
2018-02-09T12:46:42.760Z,85.73
2018-02-09T12:49:10.320Z,91.87
2018-02-09T12:51:37.880Z,79.23
2018-02-09T12:54:06.155Z,77.00
2018-02-09T12:56:33.649Z,75.90
2018-02-09T12:59:01.889Z,80.10
2018-02-09T13:01:29.449Z,79.50
2018-02-09T13:03:57.008Z,80.10
2018-02-09T13:06:24.568Z,82.13
2018-02-09T13:08:52.127Z,72.53
2018-02-09T13:11:19.620Z,83.17
2018-02-09T13:13:47.058Z,72.70
2018-02-09T13:16:14.498Z,88.47
2018-02-09T13:18:47.829Z,73.27
2018-02-09T13:21:15.354Z,78.03
2018-02-09T13:23:48.749Z,74.20
2018-02-09T13:26:16.308Z,76.67
2018-02-09T13:28:49.740Z,80.43
2018-02-09T13:31:17.468Z,73.93
2018-02-09T13:33:45.027Z,75.53
2018-02-09T13:36:16.201Z,79.93
2018-02-09T13:53:25.388Z,80.40
2018-02-09T13:55:52.893Z,82.63
2018-02-09T13:58:20.416Z,76.33
2018-02-09T14:00:48.079Z,82.90
2018-02-09T14:27:44.884Z,78.70
2018-02-09T14:30:12.443Z,94.43
2018-02-09T14:32:40.003Z,89.17
2018-02-09T14:35:07.407Z,87.97
2018-02-09T14:37:34.854Z,92.10
2018-02-09T14:40:02.373Z,91.43
2018-02-09T14:42:29.785Z,85.77
2018-02-09T14:44:57.389Z,87.97
2018-02-09T14:47:24.954Z,88.30
2018-02-09T14:49:52.509Z,90.03
2018-02-09T14:52:20.171Z,79.60
2018-02-09T14:54:47.666Z,94.80
2018-02-09T14:57:15.084Z,80.60
2018-02-09T14:59:42.542Z,94.83
2018-02-09T15:02:10.048Z,94.60
2018-02-09T15:04:37.557Z,92.67
2018-02-09T15:07:05.004Z,86.10
2018-02-09T15:09:32.507Z,97.03
2018-02-09T15:11:59.943Z,99.83
2018-02-09T15:14:27.424Z,100.83
2018-02-09T15:16:55.047Z,97.77
2018-02-09T15:19:22.608Z,94.87
2018-02-09T15:21:50.021Z,101.20
2018-02-09T15:24:17.629Z,96.87
2018-02-09T15:26:45.082Z,104.37
2018-02-09T15:29:12.641Z,101.27
2018-02-09T15:31:40.236Z,106.17
2018-02-09T15:34:07.697Z,103.60
2018-02-09T15:36:35.114Z,103.40
2018-02-09T15:39:02.674Z,110.57
2018-02-09T15:41:30.088Z,113.70
2018-02-09T15:43:57.623Z,109.63
2018-02-09T15:46:25.250Z,113.40
2018-02-09T15:48:52.809Z,111.97
2018-02-09T15:51:20.369Z,110.37
2018-02-09T15:53:47.929Z,106.77
2018-02-09T15:56:15.488Z,126.17
2018-02-09T15:58:43.150Z,113.87
2018-02-09T16:01:10.708Z,120.00
2018-02-09T16:03:38.268Z,126.03
2018-02-09T16:06:05.826Z,117.93
2018-02-09T16:08:33.320Z,124.70
2018-02-09T16:11:00.843Z,115.23
2018-02-09T16:13:28.402Z,113.37
2018-02-09T16:15:55.968Z,122.17
2018-02-09T16:18:23.469Z,116.30
2018-02-09T16:20:50.964Z,128.97
2018-02-09T16:23:18.538Z,134.07
2018-02-09T16:25:46.040Z,128.97
2018-02-09T16:28:13.659Z,121.00
2018-02-09T16:30:41.152Z,138.27
2018-02-09T16:33:08.712Z,120.10
2018-02-09T16:35:36.233Z,120.67
2018-02-09T16:38:03.739Z,128.97
2018-02-09T16:40:31.352Z,133.90
2018-02-09T16:42:58.912Z,133.83
2018-02-09T16:45:26.328Z,132.77
2018-02-09T16:47:53.863Z,126.10
2018-02-09T16:50:21.488Z,126.70
2018-02-09T16:52:49.047Z,118.90
2018-02-09T16:55:17.019Z,132.47
2018-02-09T16:57:44.576Z,119.60
2018-02-09T17:00:12.136Z,138.80
2018-02-09T17:02:39.627Z,129.60
2018-02-09T17:05:10.532Z,138.77
2018-02-09T17:07:38.090Z,124.23
2018-02-09T17:10:05.500Z,130.33
2018-02-09T17:12:33.107Z,128.73
2018-02-09T17:15:00.666Z,134.70
2018-02-09T17:17:28.226Z,150.30
2018-02-09T17:19:55.788Z,146.30
2018-02-09T17:22:23.281Z,132.27
2018-02-09T17:24:50.802Z,154.00
2018-02-09T17:27:18.362Z,144.07
2018-02-09T17:29:46.076Z,131.07
2018-02-09T17:32:13.583Z,130.40
2018-02-09T17:34:41.247Z,133.37
2018-02-09T17:37:08.805Z,128.87
2018-02-09T17:39:36.301Z,130.60
2018-02-09T17:42:03.923Z,135.63
2018-02-09T17:44:31.482Z,135.60
2018-02-09T17:46:59.043Z,136.27
2018-02-09T17:49:26.600Z,120.97
2018-02-09T17:51:54.098Z,127.77
2018-02-09T17:54:21.822Z,128.80
2018-02-09T17:56:49.382Z,138.50
2018-02-09T17:59:16.943Z,145.80
2018-02-09T18:01:44.501Z,145.83
2018-02-09T18:04:12.548Z,148.60
2018-02-09T18:06:40.132Z,142.57
2018-02-09T18:09:07.583Z,157.03
2018-02-09T18:11:35.094Z,148.10
2018-02-09T18:14:02.606Z,151.30
2018-02-09T18:16:30.101Z,143.13
2018-02-09T18:18:57.621Z,150.27
2018-02-09T18:21:25.117Z,136.97
2018-02-09T18:23:52.638Z,128.60
2018-02-09T18:26:20.056Z,142.87
2018-02-09T18:28:47.655Z,163.67
2018-02-09T18:31:15.215Z,140.50
2018-02-09T18:33:42.720Z,142.43
2018-02-09T18:36:10.129Z,141.23
2018-02-09T18:38:37.691Z,145.53
2018-02-09T18:41:05.247Z,144.60
2018-02-09T18:43:32.680Z,135.87
2018-02-09T18:46:00.264Z,130.33
2018-02-09T18:48:27.822Z,139.07
2018-02-09T18:50:55.485Z,135.70
2018-02-09T18:53:23.767Z,131.07
2018-02-09T18:55:51.321Z,133.00
2018-02-09T18:58:18.818Z,138.20
2018-02-09T19:00:46.223Z,138.40
2018-02-09T19:03:13.794Z,125.90
2018-02-09T19:05:41.457Z,139.57
2018-02-09T19:08:12.907Z,134.30
2018-02-09T19:10:40.466Z,134.63
2018-02-09T19:13:08.027Z,141.40
2018-02-09T19:15:35.526Z,142.03
2018-02-09T19:18:03.160Z,146.27
2018-02-09T19:20:30.707Z,151.90
2018-02-09T19:22:58.264Z,141.10
2018-02-09T19:25:25.823Z,141.43
2018-02-09T19:27:53.486Z,150.40
2018-02-09T19:30:20.942Z,138.67
2018-02-09T19:32:48.604Z,138.77
2018-02-09T19:35:16.163Z,143.87
2018-02-09T19:37:43.666Z,126.00
2018-02-09T19:40:11.236Z,147.53
2018-02-09T19:42:38.739Z,146.13
2018-02-09T19:45:06.299Z,145.20
2018-02-09T19:47:33.858Z,137.37
2018-02-09T19:50:01.456Z,149.63
2018-02-09T19:52:28.977Z,151.17
2018-02-09T19:54:56.536Z,152.83
2018-02-09T19:57:24.096Z,150.93
2018-02-09T19:59:51.620Z,145.90
2018-02-09T20:02:19.216Z,151.97
2018-02-09T20:04:46.774Z,140.60
2018-02-09T20:07:14.335Z,157.10
2018-02-09T20:09:41.785Z,142.93
2018-02-09T20:12:09.299Z,144.40
2018-02-09T20:14:36.807Z,134.27
2018-02-09T20:17:04.366Z,153.80
2018-02-09T20:19:31.784Z,156.23
2018-02-09T20:21:59.385Z,140.70
2018-02-09T20:24:27.250Z,139.40
2018-02-09T20:26:54.846Z,151.00
2018-02-09T20:29:22.369Z,139.17
2018-02-09T20:31:49.826Z,134.93
2018-02-09T20:34:17.385Z,136.00
2018-02-09T20:36:44.945Z,142.60
2018-02-09T20:39:12.401Z,132.50
2018-02-09T20:41:40.269Z,143.80
2018-02-09T20:44:07.828Z,138.90
2018-02-09T20:46:35.387Z,148.00
2018-02-09T20:49:03.029Z,137.40
2018-02-09T20:51:30.507Z,134.90
2018-02-09T20:53:58.097Z,138.73
2018-02-09T20:56:25.728Z,149.43
2018-02-09T20:58:53.287Z,145.00
2018-02-09T21:01:20.846Z,143.63
2018-02-09T21:03:48.918Z,135.30
2018-02-09T21:06:16.477Z,142.87
2018-02-09T21:08:44.037Z,142.63
2018-02-09T21:11:11.596Z,143.63
2018-02-09T21:13:39.093Z,151.90
2018-02-09T21:16:06.715Z,147.63
2018-02-09T21:18:34.279Z,142.50
2018-02-09T21:21:01.833Z,153.63
2018-02-09T21:23:29.700Z,150.17
2018-02-09T21:25:57.260Z,151.27
2018-02-09T21:28:24.822Z,153.67
2018-02-09T21:30:52.378Z,155.33
2018-02-09T21:33:19.873Z,148.43
2018-02-09T21:35:47.332Z,148.10
2018-02-09T21:38:14.955Z,145.37
2018-02-09T21:40:42.514Z,150.07
2018-02-09T21:43:09.926Z,143.53
2018-02-09T21:45:37.363Z,156.70
2018-02-09T21:48:04.874Z,150.63
2018-02-09T21:50:32.382Z,147.90
2018-02-09T21:52:59.916Z,144.23
2018-02-09T21:55:27.359Z,147.30
2018-02-09T21:57:54.919Z,150.20
2018-02-09T22:00:22.411Z,158.33
2018-02-09T22:02:49.887Z,149.87
2018-02-09T22:05:17.328Z,150.67
2018-02-09T22:07:44.848Z,154.57
2018-02-09T22:10:15.619Z,144.57
2018-02-09T22:12:43.142Z,162.13
2018-02-09T22:15:10.701Z,136.47
2018-02-09T22:17:38.801Z,155.40
2018-02-09T22:20:06.333Z,151.83
2018-02-09T22:22:33.896Z,159.33
2018-02-09T22:25:01.555Z,139.30
2018-02-09T22:27:29.113Z,152.57
2018-02-09T22:29:56.570Z,150.13
2018-02-09T22:32:24.231Z,154.40
2018-02-09T22:34:51.792Z,148.23
2018-02-09T22:37:19.351Z,167.77
2018-02-09T22:39:46.848Z,159.10
2018-02-09T22:42:14.296Z,148.87
2018-02-09T22:44:41.772Z,140.90
2018-02-09T22:47:09.388Z,145.07
2018-02-09T22:49:36.943Z,149.47
2018-02-09T22:52:04.503Z,151.17
2018-02-09T22:54:32.061Z,154.40
2018-02-09T22:56:59.560Z,168.10
2018-02-09T22:59:27.005Z,159.63
2018-02-09T23:01:54.741Z,172.27
2018-02-09T23:04:22.300Z,162.87
2018-02-09T23:06:49.860Z,159.63
2018-02-09T23:09:17.316Z,161.27
2018-02-09T23:11:44.877Z,171.50
2018-02-09T23:14:12.372Z,166.77
2018-02-09T23:16:39.828Z,169.43
2018-02-09T23:19:07.462Z,167.70
2018-02-09T23:21:35.011Z,151.40
2018-02-09T23:24:02.508Z,161.97
2018-02-09T23:26:30.131Z,165.07
2018-02-09T23:28:57.690Z,162.10
2018-02-09T23:31:25.250Z,158.37
2018-02-09T23:33:52.810Z,167.27
2018-02-09T23:36:20.368Z,170.20
2018-02-09T23:38:47.928Z,149.03
2018-02-09T23:41:15.448Z,158.90
2018-02-09T23:43:42.944Z,157.30
2018-02-09T23:46:10.504Z,177.63
2018-02-09T23:48:38.105Z,157.17
2018-02-09T23:51:05.623Z,156.50
2018-02-09T23:53:33.226Z,159.70
2018-02-09T23:56:00.741Z,160.17
2018-02-09T23:58:28.236Z,153.17
